Airfield :







YOU CAN JOIN US ON...

 
LOGIN :

Register | Disclaimer

   EN    FR    IT 

 









Legend :    VFR   Marginal VFR   IFR   Intensive IFR   Very Intensive IFR
Visi :
Ceiling :
>= 8 km
>= 3000ft
5 to 8 km
1000 to 3000 ft
1500m to 5 km
500 to 1000 ft
800 to 1500m
200 to 500 ft
< 800m
< 200 ft
Symbols :   Thunderstorms  Fog  Heavy snow  Heavy precipitations  Wind > 20 kt






- Airport Elevation : 1005 ft
- IATA code : YAH


CYAH - La Grande-4

CURRENT METAR :
  • 071600Z AUTO 28016G26KT 9SM BKN028 OVC035 12/06 A2986 RMK SLP120

EXPIRED METARs :
  • 071543Z AUTO 28017G26KT 9SM SCT024 BKN029 OVC035 12/07 A2985 RMK SLP120
  • 071529Z AUTO 27019G28KT 9SM BKN024 OVC030 11/07 A2984 RMK TS/LTNG TEMPO UNAVBL SLP117
  • 071410Z AUTO 27015G25KT 9SM BKN022 BKN028 BKN036 OVC049 10/07 A2980 RMK SLP103
  • 071403Z AUTO 28014G22KT 9SM FEW019 SCT024 BKN028 OVC047 10/07 A2980 RMK SLP103
  • 071347Z AUTO 28013G22KT 9SM -RA FEW015 BKN021 BKN030 OVC038 10/07 A2979 RMK SLP101

TAF AMD TAF CYAH
Valid from the 07 at 15:00 until the 07 at 21:00 UTC


071536Z 0715/0721 28017G27KT P6SM BKN030
TEMPO 0715/0721 BKN020
BECMG 0717/0719 28013G23KT RMK FCST BASED ON AUTO OBS. NXT FCST BY 071800Z
CZUL FIR / North America



MET'MAP, your aeronautical weather chart ! - Copyright ORBIFLY December 2007 - Disclaimer

ORBIFLY MET'MAP TEAM :

Programming & Development : Alexandra Zaïnal
Original concept : Baudouin d'Aumeries
Technical & hardware support : Manuel Goepfert
Assistance : Marc-Olivier Méhu




SOURCES & CREDITS :

   NOAA